Long Branch, New Jersey
Current Conditions -  °F | °C
As of 4:35 AM on Saturday 20 Dec 2014 (Local Time) from KBLM Reporting Station
Overcast Overcast  
Wind Chill: 24°   Ceiling: 2600
Heat Index: 30°   Visibility: 10mi
Dew Point: 18°   Wind: 6mph
Humidity: 60%   Direction: 300°WNW
Pressure: 30.22"   Gusts: NA
Location:  40.3°N, 73.99°W
Report Text: KBLM 200935Z AUTO 30005KT 10SM OVC026 M01/M08 A3022 RMK AO1
Loading
Personal Weather Stations






























Interactive Weather Map New forecast layout! Learn more

10-Day Weather Forecast

Advertisements
Track Severe Weather on mobile